sensor_id;sensor_type;location;lat;lon;timestamp;P1;durP1;ratioP1;P2;durP2;ratioP2
26271;SDS011;13997;48.902;12.472;2023-05-10T00:01:55;7.03;;;3.53;;
26271;SDS011;13997;48.902;12.472;2023-05-10T00:04:21;8.30;;;3.55;;
26271;SDS011;13997;48.902;12.472;2023-05-10T00:06:46;6.53;;;3.42;;
26271;SDS011;13997;48.902;12.472;2023-05-10T00:09:12;4.05;;;3.30;;
26271;SDS011;13997;48.902;12.472;2023-05-10T00:11:38;7.95;;;3.47;;
26271;SDS011;13997;48.902;12.472;2023-05-10T00:14:04;6.38;;;3.30;;
26271;SDS011;13997;48.902;12.472;2023-05-10T00:16:29;8.07;;;4.10;;
26271;SDS011;13997;48.902;12.472;2023-05-10T00:18:55;8.15;;;3.85;;
26271;SDS011;13997;48.902;12.472;2023-05-10T00:21:20;7.40;;;3.38;;
26271;SDS011;13997;48.902;12.472;2023-05-10T00:23:46;5.03;;;3.80;;
26271;SDS011;13997;48.902;12.472;2023-05-10T00:26:12;10.05;;;3.67;;
26271;SDS011;13997;48.902;12.472;2023-05-10T00:28:37;6.65;;;3.33;;
26271;SDS011;13997;48.902;12.472;2023-05-10T00:31:03;6.50;;;3.80;;
26271;SDS011;13997;48.902;12.472;2023-05-10T00:33:28;7.72;;;3.65;;
26271;SDS011;13997;48.902;12.472;2023-05-10T00:35:54;8.98;;;3.92;;
26271;SDS011;13997;48.902;12.472;2023-05-10T00:38:20;8.10;;;4.22;;
26271;SDS011;13997;48.902;12.472;2023-05-10T00:40:46;6.53;;;4.15;;
26271;SDS011;13997;48.902;12.472;2023-05-10T00:43:11;10.48;;;4.82;;
26271;SDS011;13997;48.902;12.472;2023-05-10T00:45:37;7.63;;;4.50;;
26271;SDS011;13997;48.902;12.472;2023-05-10T00:48:05;5.70;;;4.20;;
26271;SDS011;13997;48.902;12.472;2023-05-10T00:50:31;5.32;;;3.92;;
26271;SDS011;13997;48.902;12.472;2023-05-10T00:52:58;5.53;;;4.28;;
26271;SDS011;13997;48.902;12.472;2023-05-10T00:55:25;6.90;;;4.60;;
26271;SDS011;13997;48.902;12.472;2023-05-10T00:57:52;6.18;;;3.90;;
26271;SDS011;13997;48.902;12.472;2023-05-10T01:00:18;7.30;;;4.53;;
26271;SDS011;13997;48.902;12.472;2023-05-10T01:02:44;6.80;;;4.05;;
26271;SDS011;13997;48.902;12.472;2023-05-10T01:05:11;6.13;;;4.40;;
26271;SDS011;13997;48.902;12.472;2023-05-10T01:07:37;6.53;;;4.05;;
26271;SDS011;13997;48.902;12.472;2023-05-10T01:10:02;8.52;;;4.65;;
26271;SDS011;13997;48.902;12.472;2023-05-10T01:12:28;7.78;;;4.32;;
26271;SDS011;13997;48.902;12.472;2023-05-10T01:14:54;11.80;;;4.97;;
26271;SDS011;13997;48.902;12.472;2023-05-10T01:17:20;9.35;;;4.68;;
26271;SDS011;13997;48.902;12.472;2023-05-10T01:19:47;7.65;;;4.82;;
26271;SDS011;13997;48.902;12.472;2023-05-10T01:36:20;8.07;;;5.00;;
26271;SDS011;13997;48.902;12.472;2023-05-10T01:39:04;10.37;;;5.50;;
26271;SDS011;13997;48.902;12.472;2023-05-10T01:41:48;10.63;;;4.70;;
26271;SDS011;13997;48.902;12.472;2023-05-10T01:47:17;8.27;;;5.05;;
26271;SDS011;13997;48.902;12.472;2023-05-10T01:49:53;5.85;;;4.53;;
26271;SDS011;13997;48.902;12.472;2023-05-10T01:52:23;10.68;;;4.90;;
26271;SDS011;13997;48.902;12.472;2023-05-10T01:54:55;20.20;;;6.30;;
26271;SDS011;13997;48.902;12.472;2023-05-10T01:57:27;8.10;;;5.40;;
26271;SDS011;13997;48.902;12.472;2023-05-10T01:59:57;9.30;;;5.43;;
26271;SDS011;13997;48.902;12.472;2023-05-10T02:02:25;8.00;;;4.95;;
26271;SDS011;13997;48.902;12.472;2023-05-10T02:04:53;7.63;;;5.47;;
26271;SDS011;13997;48.902;12.472;2023-05-10T02:07:20;7.88;;;5.40;;
26271;SDS011;13997;48.902;12.472;2023-05-10T02:09:48;7.97;;;5.47;;
26271;SDS011;13997;48.902;12.472;2023-05-10T02:12:14;9.55;;;5.35;;
26271;SDS011;13997;48.902;12.472;2023-05-10T02:14:41;8.45;;;5.43;;
26271;SDS011;13997;48.902;12.472;2023-05-10T02:17:07;7.53;;;5.55;;
26271;SDS011;13997;48.902;12.472;2023-05-10T02:19:34;7.10;;;5.40;;
26271;SDS011;13997;48.902;12.472;2023-05-10T02:22:02;8.75;;;5.57;;
26271;SDS011;13997;48.902;12.472;2023-05-10T02:24:28;7.88;;;5.70;;
26271;SDS011;13997;48.902;12.472;2023-05-10T02:26:54;7.15;;;5.57;;
26271;SDS011;13997;48.902;12.472;2023-05-10T02:29:21;9.95;;;6.05;;
26271;SDS011;13997;48.902;12.472;2023-05-10T02:31:49;10.85;;;5.85;;
26271;SDS011;13997;48.902;12.472;2023-05-10T02:34:19;8.83;;;6.10;;
26271;SDS011;13997;48.902;12.472;2023-05-10T02:36:47;9.20;;;5.47;;
26271;SDS011;13997;48.902;12.472;2023-05-10T02:39:13;10.45;;;5.72;;
26271;SDS011;13997;48.902;12.472;2023-05-10T02:41:40;8.27;;;5.82;;
26271;SDS011;13997;48.902;12.472;2023-05-10T02:44:07;8.82;;;5.93;;
26271;SDS011;13997;48.902;12.472;2023-05-10T02:46:34;9.88;;;6.10;;
26271;SDS011;13997;48.902;12.472;2023-05-10T02:49:01;9.80;;;6.30;;
26271;SDS011;13997;48.902;12.472;2023-05-10T02:51:28;10.43;;;5.88;;
26271;SDS011;13997;48.902;12.472;2023-05-10T02:53:56;9.82;;;5.70;;
26271;SDS011;13997;48.902;12.472;2023-05-10T02:56:34;9.27;;;5.82;;
26271;SDS011;13997;48.902;12.472;2023-05-10T02:59:05;8.98;;;5.72;;
26271;SDS011;13997;48.902;12.472;2023-05-10T03:01:31;10.80;;;6.32;;
26271;SDS011;13997;48.902;12.472;2023-05-10T03:03:57;11.90;;;7.00;;
26271;SDS011;13997;48.902;12.472;2023-05-10T03:06:22;10.88;;;7.05;;
26271;SDS011;13997;48.902;12.472;2023-05-10T03:08:48;9.77;;;6.43;;
26271;SDS011;13997;48.902;12.472;2023-05-10T03:17:15;11.48;;;6.70;;
26271;SDS011;13997;48.902;12.472;2023-05-10T03:19:53;9.70;;;6.38;;
26271;SDS011;13997;48.902;12.472;2023-05-10T03:24:49;9.88;;;6.53;;
26271;SDS011;13997;48.902;12.472;2023-05-10T03:27:18;9.52;;;6.40;;
26271;SDS011;13997;48.902;12.472;2023-05-10T03:29:45;11.95;;;6.50;;
26271;SDS011;13997;48.902;12.472;2023-05-10T03:32:11;10.13;;;6.28;;
26271;SDS011;13997;48.902;12.472;2023-05-10T03:34:40;9.63;;;6.72;;
26271;SDS011;13997;48.902;12.472;2023-05-10T03:37:08;9.25;;;6.20;;
26271;SDS011;13997;48.902;12.472;2023-05-10T03:39:33;8.38;;;6.50;;
26271;SDS011;13997;48.902;12.472;2023-05-10T03:41:59;9.70;;;6.40;;
26271;SDS011;13997;48.902;12.472;2023-05-10T03:44:24;9.57;;;7.15;;
26271;SDS011;13997;48.902;12.472;2023-05-10T03:46:50;10.68;;;6.38;;
26271;SDS011;13997;48.902;12.472;2023-05-10T03:49:16;9.52;;;6.97;;
26271;SDS011;13997;48.902;12.472;2023-05-10T03:51:41;9.65;;;6.60;;
26271;SDS011;13997;48.902;12.472;2023-05-10T03:54:07;10.75;;;6.93;;
26271;SDS011;13997;48.902;12.472;2023-05-10T03:56:32;9.73;;;6.80;;
26271;SDS011;13997;48.902;12.472;2023-05-10T03:58:58;9.90;;;6.78;;
26271;SDS011;13997;48.902;12.472;2023-05-10T04:01:23;14.43;;;7.57;;
26271;SDS011;13997;48.902;12.472;2023-05-10T04:03:49;9.15;;;6.28;;
26271;SDS011;13997;48.902;12.472;2023-05-10T04:06:15;9.98;;;6.88;;
26271;SDS011;13997;48.902;12.472;2023-05-10T04:08:40;8.15;;;6.82;;
26271;SDS011;13997;48.902;12.472;2023-05-10T04:11:06;11.35;;;7.40;;
26271;SDS011;13997;48.902;12.472;2023-05-10T04:13:32;11.30;;;8.05;;
26271;SDS011;13997;48.902;12.472;2023-05-10T04:15:58;10.55;;;7.70;;
26271;SDS011;13997;48.902;12.472;2023-05-10T04:18:24;11.52;;;7.95;;
26271;SDS011;13997;48.902;12.472;2023-05-10T04:20:50;14.18;;;7.90;;
26271;SDS011;13997;48.902;12.472;2023-05-10T04:23:15;16.15;;;8.18;;
26271;SDS011;13997;48.902;12.472;2023-05-10T04:25:41;13.27;;;8.40;;
26271;SDS011;13997;48.902;12.472;2023-05-10T04:28:07;16.35;;;8.35;;
26271;SDS011;13997;48.902;12.472;2023-05-10T04:30:33;11.50;;;8.63;;
26271;SDS011;13997;48.902;12.472;2023-05-10T04:32:59;12.82;;;8.52;;
26271;SDS011;13997;48.902;12.472;2023-05-10T04:35:26;17.10;;;9.88;;
26271;SDS011;13997;48.902;12.472;2023-05-10T04:37:53;12.93;;;7.95;;
26271;SDS011;13997;48.902;12.472;2023-05-10T04:40:18;15.07;;;8.98;;
26271;SDS011;13997;48.902;12.472;2023-05-10T04:42:44;16.42;;;9.73;;
26271;SDS011;13997;48.902;12.472;2023-05-10T04:45:10;15.63;;;9.75;;
26271;SDS011;13997;48.902;12.472;2023-05-10T04:47:36;17.20;;;10.00;;
26271;SDS011;13997;48.902;12.472;2023-05-10T04:50:02;14.85;;;9.93;;
26271;SDS011;13997;48.902;12.472;2023-05-10T04:52:31;19.52;;;10.73;;
26271;SDS011;13997;48.902;12.472;2023-05-10T04:54:57;24.05;;;10.52;;
26271;SDS011;13997;48.902;12.472;2023-05-10T04:57:22;16.08;;;10.30;;
26271;SDS011;13997;48.902;12.472;2023-05-10T04:59:48;15.98;;;9.77;;
26271;SDS011;13997;48.902;12.472;2023-05-10T05:02:13;13.98;;;10.35;;
26271;SDS011;13997;48.902;12.472;2023-05-10T05:04:39;16.02;;;10.57;;
26271;SDS011;13997;48.902;12.472;2023-05-10T05:07:04;15.88;;;10.45;;
26271;SDS011;13997;48.902;12.472;2023-05-10T05:09:30;13.90;;;10.20;;
26271;SDS011;13997;48.902;12.472;2023-05-10T05:11:57;14.75;;;9.98;;
26271;SDS011;13997;48.902;12.472;2023-05-10T05:14:23;13.95;;;10.82;;
26271;SDS011;13997;48.902;12.472;2023-05-10T05:16:50;14.98;;;10.25;;
26271;SDS011;13997;48.902;12.472;2023-05-10T05:19:16;16.15;;;10.38;;
26271;SDS011;13997;48.902;12.472;2023-05-10T05:21:41;19.05;;;11.43;;
26271;SDS011;13997;48.902;12.472;2023-05-10T05:24:07;19.52;;;10.52;;
26271;SDS011;13997;48.902;12.472;2023-05-10T05:26:33;14.68;;;10.98;;
26271;SDS011;13997;48.902;12.472;2023-05-10T05:28:59;16.13;;;11.13;;
26271;SDS011;13997;48.902;12.472;2023-05-10T05:31:24;18.08;;;11.13;;
26271;SDS011;13997;48.902;12.472;2023-05-10T05:33:50;13.13;;;10.65;;
26271;SDS011;13997;48.902;12.472;2023-05-10T05:36:16;19.92;;;11.05;;
26271;SDS011;13997;48.902;12.472;2023-05-10T05:38:41;17.95;;;11.45;;
26271;SDS011;13997;48.902;12.472;2023-05-10T05:41:07;17.55;;;11.68;;
26271;SDS011;13997;48.902;12.472;2023-05-10T05:43:33;14.85;;;11.55;;
26271;SDS011;13997;48.902;12.472;2023-05-10T05:45:59;18.88;;;12.30;;
26271;SDS011;13997;48.902;12.472;2023-05-10T05:48:24;15.43;;;11.23;;
26271;SDS011;13997;48.902;12.472;2023-05-10T05:50:50;18.65;;;12.38;;
26271;SDS011;13997;48.902;12.472;2023-05-10T05:53:20;20.35;;;11.93;;
26271;SDS011;13997;48.902;12.472;2023-05-10T05:55:52;17.00;;;11.88;;
26271;SDS011;13997;48.902;12.472;2023-05-10T05:58:19;20.13;;;12.88;;
26271;SDS011;13997;48.902;12.472;2023-05-10T06:00:46;20.83;;;12.48;;
26271;SDS011;13997;48.902;12.472;2023-05-10T06:03:11;17.90;;;12.27;;
26271;SDS011;13997;48.902;12.472;2023-05-10T06:05:37;20.00;;;12.85;;
26271;SDS011;13997;48.902;12.472;2023-05-10T06:08:03;22.15;;;11.93;;
26271;SDS011;13997;48.902;12.472;2023-05-10T06:10:28;16.58;;;11.77;;
26271;SDS011;13997;48.902;12.472;2023-05-10T06:12:55;28.08;;;12.77;;
26271;SDS011;13997;48.902;12.472;2023-05-10T06:15:21;19.52;;;12.40;;
26271;SDS011;13997;48.902;12.472;2023-05-10T06:17:46;17.80;;;12.43;;
26271;SDS011;13997;48.902;12.472;2023-05-10T06:20:14;20.02;;;12.00;;
26271;SDS011;13997;48.902;12.472;2023-05-10T06:22:40;16.48;;;11.88;;
26271;SDS011;13997;48.902;12.472;2023-05-10T06:25:06;16.70;;;11.18;;
26271;SDS011;13997;48.902;12.472;2023-05-10T06:27:32;16.92;;;11.50;;
26271;SDS011;13997;48.902;12.472;2023-05-10T06:29:57;17.27;;;12.27;;
26271;SDS011;13997;48.902;12.472;2023-05-10T06:32:23;17.63;;;11.88;;
26271;SDS011;13997;48.902;12.472;2023-05-10T06:34:48;17.92;;;13.20;;
26271;SDS011;13997;48.902;12.472;2023-05-10T06:37:14;17.67;;;12.60;;
26271;SDS011;13997;48.902;12.472;2023-05-10T06:39:40;19.17;;;12.93;;
26271;SDS011;13997;48.902;12.472;2023-05-10T06:42:05;16.77;;;12.43;;
26271;SDS011;13997;48.902;12.472;2023-05-10T06:44:31;19.05;;;13.15;;
26271;SDS011;13997;48.902;12.472;2023-05-10T06:46:57;18.10;;;12.80;;
26271;SDS011;13997;48.902;12.472;2023-05-10T06:49:22;19.83;;;13.07;;
26271;SDS011;13997;48.902;12.472;2023-05-10T06:51:48;17.58;;;13.15;;
26271;SDS011;13997;48.902;12.472;2023-05-10T06:54:14;20.58;;;14.30;;
26271;SDS011;13997;48.902;12.472;2023-05-10T06:56:39;20.83;;;13.98;;
26271;SDS011;13997;48.902;12.472;2023-05-10T06:59:05;17.90;;;13.52;;
26271;SDS011;13997;48.902;12.472;2023-05-10T07:01:30;21.67;;;14.25;;
26271;SDS011;13997;48.902;12.472;2023-05-10T07:03:56;21.08;;;13.63;;
26271;SDS011;13997;48.902;12.472;2023-05-10T07:06:21;18.15;;;12.80;;
26271;SDS011;13997;48.902;12.472;2023-05-10T07:08:47;19.25;;;14.20;;
26271;SDS011;13997;48.902;12.472;2023-05-10T07:11:13;20.80;;;14.13;;
26271;SDS011;13997;48.902;12.472;2023-05-10T07:13:38;19.73;;;14.07;;
26271;SDS011;13997;48.902;12.472;2023-05-10T07:16:06;19.20;;;13.13;;
26271;SDS011;13997;48.902;12.472;2023-05-10T07:18:32;19.75;;;13.70;;
26271;SDS011;13997;48.902;12.472;2023-05-10T07:20:58;20.25;;;14.13;;
26271;SDS011;13997;48.902;12.472;2023-05-10T07:23:24;18.10;;;12.90;;
26271;SDS011;13997;48.902;12.472;2023-05-10T07:25:50;15.70;;;12.52;;
26271;SDS011;13997;48.902;12.472;2023-05-10T07:28:17;16.92;;;12.57;;
26271;SDS011;13997;48.902;12.472;2023-05-10T07:30:43;18.17;;;12.52;;
26271;SDS011;13997;48.902;12.472;2023-05-10T07:33:09;16.25;;;11.65;;
26271;SDS011;13997;48.902;12.472;2023-05-10T07:35:36;15.63;;;11.77;;
26271;SDS011;13997;48.902;12.472;2023-05-10T07:38:02;24.27;;;16.88;;
26271;SDS011;13997;48.902;12.472;2023-05-10T07:40:28;21.10;;;12.45;;
26271;SDS011;13997;48.902;12.472;2023-05-10T07:42:54;17.65;;;11.90;;
26271;SDS011;13997;48.902;12.472;2023-05-10T07:45:20;17.40;;;11.20;;
26271;SDS011;13997;48.902;12.472;2023-05-10T07:47:45;16.40;;;11.48;;
26271;SDS011;13997;48.902;12.472;2023-05-10T07:50:11;14.13;;;10.90;;
26271;SDS011;13997;48.902;12.472;2023-05-10T07:52:36;17.55;;;11.07;;
26271;SDS011;13997;48.902;12.472;2023-05-10T07:55:02;18.60;;;12.20;;
26271;SDS011;13997;48.902;12.472;2023-05-10T07:57:28;15.70;;;11.60;;
26271;SDS011;13997;48.902;12.472;2023-05-10T07:59:53;18.10;;;12.85;;
26271;SDS011;13997;48.902;12.472;2023-05-10T08:02:19;16.08;;;11.80;;
26271;SDS011;13997;48.902;12.472;2023-05-10T08:04:45;17.13;;;11.88;;
26271;SDS011;13997;48.902;12.472;2023-05-10T08:07:10;14.52;;;11.25;;
26271;SDS011;13997;48.902;12.472;2023-05-10T08:09:36;17.45;;;11.65;;
26271;SDS011;13997;48.902;12.472;2023-05-10T08:12:02;16.63;;;12.15;;
26271;SDS011;13997;48.902;12.472;2023-05-10T08:14:28;14.23;;;11.20;;
26271;SDS011;13997;48.902;12.472;2023-05-10T08:16:54;15.23;;;11.43;;
26271;SDS011;13997;48.902;12.472;2023-05-10T08:19:20;14.95;;;11.15;;
26271;SDS011;13997;48.902;12.472;2023-05-10T08:21:46;18.88;;;11.50;;
26271;SDS011;13997;48.902;12.472;2023-05-10T08:24:12;16.10;;;11.70;;
26271;SDS011;13997;48.902;12.472;2023-05-10T08:26:38;24.50;;;14.98;;
26271;SDS011;13997;48.902;12.472;2023-05-10T08:29:03;20.65;;;13.68;;
26271;SDS011;13997;48.902;12.472;2023-05-10T08:31:29;15.27;;;12.23;;
26271;SDS011;13997;48.902;12.472;2023-05-10T08:33:55;16.50;;;11.57;;
26271;SDS011;13997;48.902;12.472;2023-05-10T08:36:20;15.50;;;12.35;;
26271;SDS011;13997;48.902;12.472;2023-05-10T08:38:52;17.55;;;12.30;;
26271;SDS011;13997;48.902;12.472;2023-05-10T08:41:19;20.58;;;12.60;;
26271;SDS011;13997;48.902;12.472;2023-05-10T08:43:54;18.63;;;12.82;;
26271;SDS011;13997;48.902;12.472;2023-05-10T08:46:20;16.42;;;11.73;;
26271;SDS011;13997;48.902;12.472;2023-05-10T08:48:50;20.13;;;12.77;;
26271;SDS011;13997;48.902;12.472;2023-05-10T08:51:18;17.80;;;13.23;;
26271;SDS011;13997;48.902;12.472;2023-05-10T08:53:50;23.90;;;14.60;;
26271;SDS011;13997;48.902;12.472;2023-05-10T08:56:16;16.83;;;12.55;;
26271;SDS011;13997;48.902;12.472;2023-05-10T08:58:42;18.65;;;11.90;;
26271;SDS011;13997;48.902;12.472;2023-05-10T09:01:08;17.30;;;12.68;;
26271;SDS011;13997;48.902;12.472;2023-05-10T09:03:37;17.67;;;13.63;;
26271;SDS011;13997;48.902;12.472;2023-05-10T09:06:03;19.02;;;12.52;;
26271;SDS011;13997;48.902;12.472;2023-05-10T09:08:30;14.57;;;11.48;;
26271;SDS011;13997;48.902;12.472;2023-05-10T09:10:56;13.05;;;10.45;;
26271;SDS011;13997;48.902;12.472;2023-05-10T09:13:22;17.27;;;10.00;;
26271;SDS011;13997;48.902;12.472;2023-05-10T09:15:49;16.20;;;11.73;;
26271;SDS011;13997;48.902;12.472;2023-05-10T09:18:16;12.30;;;10.25;;
26271;SDS011;13997;48.902;12.472;2023-05-10T09:20:41;13.57;;;10.25;;
26271;SDS011;13997;48.902;12.472;2023-05-10T09:23:07;15.40;;;11.00;;
26271;SDS011;13997;48.902;12.472;2023-05-10T09:25:33;13.27;;;10.27;;
26271;SDS011;13997;48.902;12.472;2023-05-10T09:27:59;13.98;;;10.45;;
26271;SDS011;13997;48.902;12.472;2023-05-10T09:32:51;13.13;;;10.20;;
26271;SDS011;13997;48.902;12.472;2023-05-10T09:35:18;13.32;;;9.63;;
26271;SDS011;13997;48.902;12.472;2023-05-10T09:37:47;12.10;;;9.90;;
26271;SDS011;13997;48.902;12.472;2023-05-10T09:40:20;11.77;;;9.57;;
26271;SDS011;13997;48.902;12.472;2023-05-10T09:42:54;11.00;;;8.73;;
26271;SDS011;13997;48.902;12.472;2023-05-10T09:45:22;13.20;;;8.85;;
26271;SDS011;13997;48.902;12.472;2023-05-10T09:47:48;11.73;;;8.32;;
26271;SDS011;13997;48.902;12.472;2023-05-10T09:50:14;10.85;;;8.43;;
26271;SDS011;13997;48.902;12.472;2023-05-10T09:52:46;10.55;;;8.30;;
26271;SDS011;13997;48.902;12.472;2023-05-10T09:55:16;14.88;;;8.82;;
26271;SDS011;13997;48.902;12.472;2023-05-10T09:57:43;12.73;;;8.27;;
26271;SDS011;13997;48.902;12.472;2023-05-10T10:00:09;10.90;;;7.55;;
26271;SDS011;13997;48.902;12.472;2023-05-10T10:02:35;8.93;;;7.40;;
26271;SDS011;13997;48.902;12.472;2023-05-10T10:05:01;10.55;;;7.63;;
26271;SDS011;13997;48.902;12.472;2023-05-10T10:07:28;10.13;;;7.45;;
26271;SDS011;13997;48.902;12.472;2023-05-10T10:09:54;8.18;;;6.97;;
26271;SDS011;13997;48.902;12.472;2023-05-10T10:12:20;11.85;;;7.53;;
26271;SDS011;13997;48.902;12.472;2023-05-10T10:14:46;9.93;;;6.88;;
26271;SDS011;13997;48.902;12.472;2023-05-10T10:17:15;8.43;;;6.70;;
26271;SDS011;13997;48.902;12.472;2023-05-10T10:19:42;7.97;;;6.20;;
26271;SDS011;13997;48.902;12.472;2023-05-10T10:22:08;8.57;;;6.05;;
26271;SDS011;13997;48.902;12.472;2023-05-10T10:24:36;9.30;;;6.93;;
26271;SDS011;13997;48.902;12.472;2023-05-10T10:27:07;9.52;;;6.38;;
26271;SDS011;13997;48.902;12.472;2023-05-10T10:32:54;7.45;;;5.70;;
26271;SDS011;13997;48.902;12.472;2023-05-10T10:35:27;9.40;;;6.05;;
26271;SDS011;13997;48.902;12.472;2023-05-10T10:37:53;10.68;;;5.72;;
26271;SDS011;13997;48.902;12.472;2023-05-10T10:40:32;8.13;;;5.97;;
26271;SDS011;13997;48.902;12.472;2023-05-10T10:43:20;8.07;;;6.05;;
26271;SDS011;13997;48.902;12.472;2023-05-10T10:46:08;7.28;;;5.53;;
26271;SDS011;13997;48.902;12.472;2023-05-10T10:48:30;8.23;;;5.78;;
26271;SDS011;13997;48.902;12.472;2023-05-10T10:50:57;9.65;;;5.60;;
26271;SDS011;13997;48.902;12.472;2023-05-10T10:53:25;7.00;;;5.15;;
26271;SDS011;13997;48.902;12.472;2023-05-10T10:55:56;8.30;;;4.88;;
26271;SDS011;13997;48.902;12.472;2023-05-10T10:58:33;7.70;;;4.80;;
26271;SDS011;13997;48.902;12.472;2023-05-10T11:03:37;8.98;;;5.47;;
26271;SDS011;13997;48.902;12.472;2023-05-10T11:06:03;7.25;;;5.13;;
26271;SDS011;13997;48.902;12.472;2023-05-10T11:08:30;7.22;;;5.20;;
26271;SDS011;13997;48.902;12.472;2023-05-10T11:13:28;7.13;;;5.50;;
26271;SDS011;13997;48.902;12.472;2023-05-10T11:20:51;9.25;;;6.55;;
26271;SDS011;13997;48.902;12.472;2023-05-10T11:23:20;10.50;;;6.97;;
26271;SDS011;13997;48.902;12.472;2023-05-10T11:25:46;10.32;;;6.50;;
26271;SDS011;13997;48.902;12.472;2023-05-10T11:28:13;13.13;;;7.38;;
26271;SDS011;13997;48.902;12.472;2023-05-10T11:30:39;8.48;;;6.63;;
26271;SDS011;13997;48.902;12.472;2023-05-10T11:33:06;8.52;;;6.13;;
26271;SDS011;13997;48.902;12.472;2023-05-10T11:35:41;7.25;;;6.05;;
26271;SDS011;13997;48.902;12.472;2023-05-10T11:38:10;10.23;;;5.60;;
26271;SDS011;13997;48.902;12.472;2023-05-10T11:40:37;7.25;;;5.20;;
26271;SDS011;13997;48.902;12.472;2023-05-10T11:43:03;5.72;;;4.57;;
26271;SDS011;13997;48.902;12.472;2023-05-10T11:45:34;7.15;;;5.25;;
26271;SDS011;13997;48.902;12.472;2023-05-10T11:48:00;10.02;;;5.47;;
26271;SDS011;13997;48.902;12.472;2023-05-10T11:50:26;6.25;;;5.10;;
26271;SDS011;13997;48.902;12.472;2023-05-10T11:52:52;6.28;;;4.95;;
26271;SDS011;13997;48.902;12.472;2023-05-10T11:55:22;6.07;;;5.00;;
26271;SDS011;13997;48.902;12.472;2023-05-10T11:57:52;5.47;;;4.55;;
26271;SDS011;13997;48.902;12.472;2023-05-10T12:00:18;6.72;;;4.88;;
26271;SDS011;13997;48.902;12.472;2023-05-10T12:02:44;5.65;;;4.78;;
26271;SDS011;13997;48.902;12.472;2023-05-10T12:05:10;8.27;;;4.10;;
26271;SDS011;13997;48.902;12.472;2023-05-10T12:07:36;4.63;;;3.55;;
26271;SDS011;13997;48.902;12.472;2023-05-10T12:10:08;5.28;;;3.40;;
26271;SDS011;13997;48.902;12.472;2023-05-10T12:12:44;9.18;;;4.90;;
26271;SDS011;13997;48.902;12.472;2023-05-10T12:15:19;7.50;;;4.70;;
26271;SDS011;13997;48.902;12.472;2023-05-10T12:17:49;8.75;;;4.60;;
26271;SDS011;13997;48.902;12.472;2023-05-10T12:22:54;5.20;;;4.07;;
26271;SDS011;13997;48.902;12.472;2023-05-10T12:25:21;4.75;;;3.92;;
26271;SDS011;13997;48.902;12.472;2023-05-10T12:27:51;6.32;;;4.30;;
26271;SDS011;13997;48.902;12.472;2023-05-10T12:30:19;5.70;;;3.70;;
26271;SDS011;13997;48.902;12.472;2023-05-10T12:32:45;7.63;;;5.00;;
26271;SDS011;13997;48.902;12.472;2023-05-10T12:35:11;9.32;;;5.00;;
26271;SDS011;13997;48.902;12.472;2023-05-10T12:37:37;7.28;;;4.70;;
26271;SDS011;13997;48.902;12.472;2023-05-10T12:40:06;6.85;;;4.47;;
26271;SDS011;13997;48.902;12.472;2023-05-10T12:42:33;7.30;;;4.40;;
26271;SDS011;13997;48.902;12.472;2023-05-10T12:45:00;5.30;;;4.05;;
26271;SDS011;13997;48.902;12.472;2023-05-10T12:47:27;5.15;;;3.63;;
26271;SDS011;13997;48.902;12.472;2023-05-10T12:49:53;5.15;;;3.45;;
26271;SDS011;13997;48.902;12.472;2023-05-10T12:52:19;4.22;;;3.05;;
26271;SDS011;13997;48.902;12.472;2023-05-10T12:54:45;5.80;;;3.05;;
26271;SDS011;13997;48.902;12.472;2023-05-10T12:57:12;6.38;;;2.78;;
26271;SDS011;13997;48.902;12.472;2023-05-10T12:59:38;4.43;;;2.67;;
26271;SDS011;13997;48.902;12.472;2023-05-10T13:02:05;3.60;;;2.50;;
26271;SDS011;13997;48.902;12.472;2023-05-10T13:04:31;4.20;;;2.65;;
26271;SDS011;13997;48.902;12.472;2023-05-10T13:06:57;4.00;;;2.42;;
26271;SDS011;13997;48.902;12.472;2023-05-10T13:09:27;3.97;;;2.80;;
26271;SDS011;13997;48.902;12.472;2023-05-10T13:11:56;4.88;;;2.40;;
26271;SDS011;13997;48.902;12.472;2023-05-10T13:14:22;5.35;;;2.80;;
26271;SDS011;13997;48.902;12.472;2023-05-10T13:16:48;4.55;;;2.90;;
26271;SDS011;13997;48.902;12.472;2023-05-10T13:19:14;3.67;;;2.50;;
26271;SDS011;13997;48.902;12.472;2023-05-10T13:21:40;9.75;;;3.08;;
26271;SDS011;13997;48.902;12.472;2023-05-10T13:24:06;3.85;;;2.53;;
26271;SDS011;13997;48.902;12.472;2023-05-10T13:26:32;3.78;;;2.80;;
26271;SDS011;13997;48.902;12.472;2023-05-10T13:28:59;4.50;;;2.78;;
26271;SDS011;13997;48.902;12.472;2023-05-10T13:31:25;3.45;;;2.75;;
26271;SDS011;13997;48.902;12.472;2023-05-10T13:33:51;3.67;;;2.60;;
26271;SDS011;13997;48.902;12.472;2023-05-10T13:36:17;5.97;;;3.20;;
26271;SDS011;13997;48.902;12.472;2023-05-10T13:38:43;5.03;;;3.60;;
26271;SDS011;13997;48.902;12.472;2023-05-10T13:41:09;5.25;;;3.22;;
26271;SDS011;13997;48.902;12.472;2023-05-10T13:43:35;6.18;;;3.70;;
26271;SDS011;13997;48.902;12.472;2023-05-10T13:46:01;7.45;;;3.58;;
26271;SDS011;13997;48.902;12.472;2023-05-10T13:48:27;5.57;;;3.25;;
26271;SDS011;13997;48.902;12.472;2023-05-10T13:50:53;4.90;;;3.58;;
26271;SDS011;13997;48.902;12.472;2023-05-10T13:53:20;4.63;;;3.70;;
26271;SDS011;13997;48.902;12.472;2023-05-10T13:55:46;4.68;;;3.20;;
26271;SDS011;13997;48.902;12.472;2023-05-10T13:58:12;4.80;;;3.20;;
26271;SDS011;13997;48.902;12.472;2023-05-10T14:00:38;5.57;;;3.35;;
26271;SDS011;13997;48.902;12.472;2023-05-10T14:03:04;5.35;;;3.35;;
26271;SDS011;13997;48.902;12.472;2023-05-10T14:05:31;4.43;;;3.45;;
26271;SDS011;13997;48.902;12.472;2023-05-10T14:07:57;1.50;;;0.85;;
26271;SDS011;13997;48.902;12.472;2023-05-10T14:10:23;9.50;;;1.55;;
26271;SDS011;13997;48.902;12.472;2023-05-10T14:12:50;9.48;;;1.80;;
26271;SDS011;13997;48.902;12.472;2023-05-10T14:15:16;13.32;;;4.00;;
26271;SDS011;13997;48.902;12.472;2023-05-10T14:17:42;7.50;;;2.60;;
26271;SDS011;13997;48.902;12.472;2023-05-10T14:20:08;13.65;;;2.35;;
26271;SDS011;13997;48.902;12.472;2023-05-10T14:22:34;14.02;;;3.15;;
26271;SDS011;13997;48.902;12.472;2023-05-10T14:25:00;4.35;;;1.60;;
26271;SDS011;13997;48.902;12.472;2023-05-10T14:27:26;13.10;;;1.95;;
26271;SDS011;13997;48.902;12.472;2023-05-10T14:29:52;10.38;;;2.10;;
26271;SDS011;13997;48.902;12.472;2023-05-10T14:32:18;6.15;;;2.05;;
26271;SDS011;13997;48.902;12.472;2023-05-10T14:34:44;4.70;;;1.67;;
26271;SDS011;13997;48.902;12.472;2023-05-10T14:37:10;8.27;;;1.98;;
26271;SDS011;13997;48.902;12.472;2023-05-10T14:39:36;3.08;;;1.38;;
26271;SDS011;13997;48.902;12.472;2023-05-10T14:42:02;6.38;;;3.10;;
26271;SDS011;13997;48.902;12.472;2023-05-10T14:44:28;5.97;;;2.75;;
26271;SDS011;13997;48.902;12.472;2023-05-10T14:46:53;6.68;;;3.35;;
26271;SDS011;13997;48.902;12.472;2023-05-10T14:49:20;4.05;;;3.03;;
26271;SDS011;13997;48.902;12.472;2023-05-10T14:51:47;9.40;;;2.63;;
26271;SDS011;13997;48.902;12.472;2023-05-10T14:54:13;6.03;;;1.50;;
26271;SDS011;13997;48.902;12.472;2023-05-10T14:56:39;3.42;;;1.30;;
26271;SDS011;13997;48.902;12.472;2023-05-10T14:59:06;2.33;;;1.10;;
26271;SDS011;13997;48.902;12.472;2023-05-10T15:01:32;4.07;;;1.25;;
26271;SDS011;13997;48.902;12.472;2023-05-10T15:03:58;1.35;;;1.10;;
26271;SDS011;13997;48.902;12.472;2023-05-10T15:06:25;2.47;;;1.20;;